createdAt,value
2023-02-13T00:00:27.205Z,73.82
2023-02-13T00:03:30.067Z,73.46
2023-02-13T00:06:32.876Z,73.36
2023-02-13T00:09:35.697Z,73.14
2023-02-13T00:12:38.510Z,72.49
2023-02-13T00:15:41.326Z,73.11
2023-02-13T00:18:44.171Z,72.67
2023-02-13T00:21:47.071Z,72.62
2023-02-13T00:24:49.911Z,73.20
2023-02-13T00:27:54.172Z,72.96
2023-02-13T00:31:08.200Z,72.77
2023-02-13T00:34:11.013Z,72.77
2023-02-13T00:37:13.748Z,72.80
2023-02-13T00:40:16.631Z,72.80
2023-02-13T00:43:20.377Z,73.15
2023-02-13T00:46:23.310Z,72.75
2023-02-13T00:49:26.444Z,72.78
2023-02-13T00:52:29.203Z,72.32
2023-02-13T00:55:31.972Z,72.33
2023-02-13T00:58:34.855Z,72.50
2023-02-13T01:01:37.652Z,73.11
2023-02-13T01:04:40.651Z,73.04
2023-02-13T01:07:43.392Z,73.27
2023-02-13T01:10:47.815Z,73.24
2023-02-13T01:13:50.614Z,72.36
2023-02-13T01:16:56.452Z,72.94
2023-02-13T01:19:59.323Z,72.11
2023-02-13T01:23:02.072Z,72.08
2023-02-13T01:26:06.237Z,72.30
2023-02-13T01:29:12.384Z,71.97
2023-02-13T01:32:15.838Z,72.10
2023-02-13T01:35:18.714Z,72.46
2023-02-13T01:38:22.114Z,72.97
2023-02-13T01:41:26.525Z,72.79
2023-02-13T01:45:06.099Z,72.84
2023-02-13T01:48:18.785Z,73.16
2023-02-13T01:51:27.118Z,73.87
2023-02-13T01:54:33.562Z,73.90
2023-02-13T01:57:40.633Z,74.18
2023-02-13T02:00:49.851Z,73.21
2023-02-13T02:03:59.777Z,72.72
2023-02-13T02:07:11.134Z,72.95
2023-02-13T02:10:19.634Z,72.50
2023-02-13T02:13:23.088Z,72.45
2023-02-13T02:16:27.348Z,72.53
2023-02-13T02:19:51.777Z,72.71
2023-02-13T02:23:20.509Z,72.93
2023-02-13T02:27:01.584Z,73.40
2023-02-13T02:30:07.875Z,75.49
2023-02-13T02:33:17.117Z,75.34
2023-02-13T02:36:33.809Z,75.15
2023-02-13T02:39:46.931Z,74.11
2023-02-13T02:42:49.781Z,73.72
2023-02-13T02:46:00.973Z,72.59
2023-02-13T02:49:33.420Z,73.22
2023-02-13T02:52:46.501Z,72.76
2023-02-13T02:55:56.737Z,72.41
2023-02-13T02:59:34.891Z,72.74
2023-02-13T03:02:56.733Z,73.05
2023-02-13T03:06:10.928Z,73.08
2023-02-13T03:09:42.004Z,73.31
2023-02-13T03:13:12.757Z,73.84
2023-02-13T03:16:42.694Z,73.72
2023-02-13T03:20:19.212Z,73.02
2023-02-13T03:23:30.991Z,74.44
2023-02-13T03:27:04.125Z,74.25
2023-02-13T03:30:34.952Z,73.81
2023-02-13T03:34:17.061Z,73.39
2023-02-13T03:37:47.069Z,73.18
2023-02-13T03:41:33.337Z,73.00
2023-02-13T03:44:47.075Z,72.80
2023-02-13T03:47:55.520Z,73.02
2023-02-13T03:51:00.313Z,72.75
2023-02-13T03:54:08.628Z,72.83
2023-02-13T03:57:32.049Z,73.06
2023-02-13T04:00:41.024Z,72.73
2023-02-13T04:03:56.880Z,72.55
2023-02-13T04:07:05.343Z,73.01
2023-02-13T04:10:12.804Z,72.90
2023-02-13T04:13:20.706Z,73.00
2023-02-13T04:16:26.243Z,73.48
2023-02-13T04:19:29.173Z,73.12
2023-02-13T04:22:31.934Z,73.38
2023-02-13T04:25:37.858Z,73.71
2023-02-13T04:28:40.706Z,72.67
2023-02-13T04:31:43.686Z,72.57
2023-02-13T04:34:46.530Z,72.55
2023-02-13T04:37:49.267Z,73.38
2023-02-13T04:40:52.073Z,72.79
2023-02-13T04:43:54.826Z,73.49
2023-02-13T04:46:57.531Z,73.26
2023-02-13T04:50:00.283Z,73.49
2023-02-13T04:53:03.097Z,73.08
2023-02-13T04:56:06.154Z,72.88
2023-02-13T04:59:09.070Z,72.57
2023-02-13T05:02:12.072Z,73.27
2023-02-13T05:05:14.792Z,72.71
2023-02-13T05:08:17.772Z,73.11
2023-02-13T05:11:20.563Z,73.92
2023-02-13T05:14:23.395Z,73.63
2023-02-13T05:17:28.236Z,73.39
2023-02-13T05:20:31.209Z,73.48
2023-02-13T05:23:34.141Z,73.19
2023-02-13T05:26:36.879Z,73.81
2023-02-13T05:29:40.151Z,73.32
2023-02-13T05:32:43.453Z,74.16
2023-02-13T05:35:46.198Z,73.34
2023-02-13T05:38:49.025Z,73.22
2023-02-13T05:41:51.836Z,73.46
2023-02-13T05:44:54.673Z,73.77
2023-02-13T05:47:57.443Z,73.67
2023-02-13T05:51:00.562Z,74.20
2023-02-13T05:54:03.514Z,73.97
2023-02-13T05:57:06.286Z,74.55
2023-02-13T06:00:09.477Z,73.95
2023-02-13T06:03:12.356Z,73.37
2023-02-13T06:06:15.968Z,72.03
2023-02-13T06:09:18.692Z,73.02
2023-02-13T06:12:21.504Z,73.20
2023-02-13T06:15:24.373Z,72.76
2023-02-13T06:18:27.215Z,72.25
2023-02-13T06:21:30.232Z,71.92
2023-02-13T06:24:32.945Z,72.72
2023-02-13T06:27:35.682Z,72.21
2023-02-13T06:30:38.420Z,71.46
2023-02-13T06:33:41.145Z,72.11
2023-02-13T06:36:43.820Z,72.74
2023-02-13T06:39:46.552Z,71.24
2023-02-13T06:42:49.270Z,70.79
2023-02-13T06:45:54.016Z,70.81
2023-02-13T06:48:56.801Z,70.99
2023-02-13T06:51:59.592Z,70.31
2023-02-13T06:55:02.639Z,70.56
2023-02-13T06:58:06.108Z,70.34
2023-02-13T07:01:08.986Z,69.96
2023-02-13T07:04:11.888Z,69.94
2023-02-13T07:07:14.700Z,71.37
2023-02-13T07:10:17.661Z,72.68
2023-02-13T07:13:20.399Z,70.11
2023-02-13T07:16:23.472Z,71.26
2023-02-13T07:19:26.330Z,70.99
2023-02-13T07:22:31.641Z,69.68
2023-02-13T07:25:34.844Z,70.56
2023-02-13T07:28:38.588Z,70.60
2023-02-13T07:31:42.187Z,72.45
2023-02-13T07:35:00.623Z,74.06
2023-02-13T07:38:04.848Z,72.69
2023-02-13T07:41:07.989Z,70.93
2023-02-13T07:44:11.330Z,70.68
2023-02-13T07:47:14.055Z,72.21
2023-02-13T07:50:17.061Z,71.85
2023-02-13T07:53:20.084Z,71.74
2023-02-13T07:56:23.019Z,70.71
2023-02-13T07:59:25.858Z,70.94
2023-02-13T08:02:28.858Z,71.89
2023-02-13T08:05:33.262Z,71.50
2023-02-13T08:08:37.987Z,71.39
2023-02-13T08:11:56.124Z,70.97
2023-02-13T08:14:58.901Z,71.13
2023-02-13T08:18:01.678Z,70.35
2023-02-13T08:21:04.861Z,69.82
2023-02-13T08:24:08.378Z,69.38
2023-02-13T08:27:15.186Z,69.75
2023-02-13T08:30:17.982Z,68.64
2023-02-13T08:33:21.308Z,67.97
2023-02-13T08:36:25.227Z,66.96
2023-02-13T08:39:27.948Z,66.19
2023-02-13T08:42:31.441Z,65.32
2023-02-13T08:45:35.697Z,64.85
2023-02-13T08:48:38.892Z,64.86
2023-02-13T08:51:41.732Z,63.94
2023-02-13T08:54:46.033Z,63.93
2023-02-13T08:57:48.847Z,63.38
2023-02-13T09:00:52.017Z,62.73
2023-02-13T09:03:55.702Z,62.67
2023-02-13T09:06:58.463Z,62.85
2023-02-13T09:10:01.214Z,63.17
2023-02-13T09:13:03.982Z,62.43
2023-02-13T09:16:08.103Z,61.69
2023-02-13T09:19:10.906Z,61.61
2023-02-13T09:22:13.741Z,61.19
2023-02-13T09:25:16.743Z,60.88
2023-02-13T09:28:19.979Z,61.07
2023-02-13T09:31:24.437Z,60.61
2023-02-13T09:34:27.595Z,60.20
2023-02-13T09:37:30.359Z,60.01
2023-02-13T09:40:41.540Z,59.61
2023-02-13T09:43:54.373Z,59.11
2023-02-13T09:46:57.809Z,58.70
2023-02-13T09:50:10.758Z,58.09
2023-02-13T09:53:23.447Z,57.54
2023-02-13T09:56:54.970Z,57.06
2023-02-13T10:00:14.615Z,55.82
2023-02-13T10:03:36.294Z,54.90
2023-02-13T10:06:50.738Z,53.78
2023-02-13T10:10:03.277Z,54.04
2023-02-13T10:13:36.099Z,54.38
2023-02-13T10:16:41.180Z,53.70
2023-02-13T10:20:05.644Z,53.78
2023-02-13T10:23:30.282Z,53.41
2023-02-13T10:26:42.896Z,53.64
2023-02-13T10:30:13.024Z,53.68
2023-02-13T10:33:41.841Z,54.83
2023-02-13T10:36:46.451Z,55.14
2023-02-13T10:39:51.789Z,53.77
2023-02-13T10:43:08.875Z,54.53
2023-02-13T10:46:33.975Z,55.48
2023-02-13T10:50:04.701Z,54.32
2023-02-13T10:53:33.152Z,53.53
2023-02-13T10:56:48.681Z,55.10
2023-02-13T11:00:06.223Z,55.02
2023-02-13T11:03:19.374Z,55.64
2023-02-13T11:06:22.180Z,54.51
2023-02-13T11:09:25.499Z,54.03
2023-02-13T11:12:33.561Z,55.51
2023-02-13T11:15:37.307Z,56.22
2023-02-13T11:18:44.308Z,56.71
2023-02-13T11:21:50.114Z,56.16
2023-02-13T11:25:01.261Z,55.94
2023-02-13T11:28:20.623Z,55.20
2023-02-13T11:31:26.166Z,55.46
2023-02-13T11:34:32.769Z,54.41
2023-02-13T11:37:35.573Z,53.84
2023-02-13T11:40:38.781Z,53.41
2023-02-13T11:43:48.690Z,54.43
2023-02-13T11:46:53.841Z,55.08
2023-02-13T11:49:56.745Z,54.84
2023-02-13T11:53:04.784Z,53.84
2023-02-13T11:56:09.979Z,53.33
2023-02-13T11:59:15.372Z,52.82
2023-02-13T12:02:43.753Z,52.83
2023-02-13T12:06:00.788Z,53.09
2023-02-13T12:09:03.933Z,53.28
2023-02-13T12:12:07.778Z,51.70
2023-02-13T12:15:32.921Z,50.58
2023-02-13T12:18:40.512Z,52.13
2023-02-13T12:21:56.196Z,52.71
2023-02-13T12:25:01.760Z,52.56
2023-02-13T12:28:11.190Z,52.46
2023-02-13T12:31:36.846Z,52.72
2023-02-13T12:35:01.540Z,52.34
2023-02-13T12:38:12.241Z,53.62
2023-02-13T12:41:36.198Z,53.45
2023-02-13T12:44:50.264Z,53.24
2023-02-13T12:48:16.551Z,53.36
2023-02-13T12:51:36.093Z,52.16
2023-02-13T12:54:59.793Z,53.28
2023-02-13T12:58:09.652Z,53.72
2023-02-13T13:01:15.179Z,54.24
2023-02-13T13:04:31.557Z,53.86
2023-02-13T13:07:52.606Z,53.22
2023-02-13T13:11:01.639Z,52.94
2023-02-13T13:14:15.198Z,53.70
2023-02-13T13:17:26.671Z,54.03
2023-02-13T13:20:55.719Z,53.36
2023-02-13T13:24:24.017Z,53.69
2023-02-13T13:27:32.850Z,54.24
2023-02-13T13:30:37.709Z,53.93
2023-02-13T13:33:44.206Z,53.73
2023-02-13T13:36:59.186Z,53.92
2023-02-13T13:40:19.804Z,54.47
2023-02-13T13:43:46.907Z,54.88
2023-02-13T13:47:03.046Z,55.01
2023-02-13T13:50:13.401Z,55.07
2023-02-13T13:53:23.543Z,55.21
2023-02-13T13:56:26.992Z,54.33
2023-02-13T13:59:38.738Z,54.44
2023-02-13T14:02:50.283Z,54.06
2023-02-13T14:06:13.806Z,54.64
2023-02-13T14:09:28.595Z,54.41
2023-02-13T14:12:31.307Z,54.56
2023-02-13T14:15:34.051Z,54.21
2023-02-13T14:18:38.899Z,53.74
2023-02-13T14:21:41.691Z,54.05
2023-02-13T14:24:56.972Z,54.21
2023-02-13T14:28:04.830Z,54.42
2023-02-13T14:31:18.128Z,54.23
2023-02-13T14:34:26.787Z,54.45
2023-02-13T14:37:40.332Z,54.11
2023-02-13T14:40:53.474Z,54.15
2023-02-13T14:43:56.701Z,54.05
2023-02-13T14:47:04.176Z,53.79
2023-02-13T14:50:08.569Z,54.33
2023-02-13T14:53:28.832Z,54.48
2023-02-13T14:56:32.751Z,54.66
2023-02-13T14:59:40.185Z,54.79
2023-02-13T15:02:48.539Z,54.15
2023-02-13T15:05:59.418Z,54.38
2023-02-13T15:09:06.437Z,55.07
2023-02-13T15:12:29.374Z,55.30
2023-02-13T15:15:37.087Z,54.77
2023-02-13T15:18:45.236Z,54.80
2023-02-13T15:21:56.831Z,56.07
2023-02-13T15:25:00.211Z,56.30
2023-02-13T15:28:05.306Z,56.54
2023-02-13T15:31:23.550Z,56.96
2023-02-13T15:34:34.478Z,57.98
2023-02-13T15:37:37.246Z,58.07
2023-02-13T15:40:41.874Z,57.99
2023-02-13T15:43:48.366Z,57.70
2023-02-13T15:46:53.531Z,57.31
2023-02-13T15:49:56.867Z,56.92
2023-02-13T15:53:03.165Z,56.34
2023-02-13T15:56:06.358Z,56.94
2023-02-13T15:59:10.972Z,56.82
2023-02-13T16:02:21.317Z,57.68
2023-02-13T16:05:39.456Z,58.35
2023-02-13T16:08:53.235Z,58.24
2023-02-13T16:12:00.788Z,57.69
2023-02-13T16:15:06.100Z,58.23
2023-02-13T16:18:18.976Z,58.95
2023-02-13T16:21:25.288Z,59.56
2023-02-13T16:24:29.337Z,59.75
2023-02-13T16:27:34.436Z,60.15
2023-02-13T16:30:42.249Z,60.45
2023-02-13T16:33:45.777Z,60.67
2023-02-13T16:36:48.473Z,60.56
2023-02-13T16:39:51.352Z,60.67
2023-02-13T16:43:34.299Z,59.60
2023-02-13T16:46:39.904Z,59.17
2023-02-13T16:49:42.954Z,59.03
2023-02-13T16:52:45.719Z,57.14
2023-02-13T16:55:57.860Z,57.94
2023-02-13T16:59:26.592Z,58.64
2023-02-13T17:02:38.337Z,58.99
2023-02-13T17:05:41.331Z,59.43
2023-02-13T17:08:44.238Z,59.83
2023-02-13T17:11:51.731Z,59.79
2023-02-13T17:14:56.727Z,59.96
2023-02-13T17:18:00.158Z,60.09
2023-02-13T17:21:03.316Z,60.14
2023-02-13T17:24:08.332Z,59.50
2023-02-13T17:27:11.936Z,60.06
2023-02-13T17:30:33.809Z,59.75
2023-02-13T17:33:38.419Z,59.28
2023-02-13T17:36:41.169Z,59.20
2023-02-13T17:39:44.551Z,59.00
2023-02-13T17:42:51.612Z,59.66
2023-02-13T17:45:54.653Z,59.87
2023-02-13T17:48:57.948Z,60.14
2023-02-13T17:52:01.266Z,60.64
2023-02-13T17:55:14.774Z,60.18
2023-02-13T17:58:17.680Z,60.02
2023-02-13T18:01:20.676Z,59.87
2023-02-13T18:04:23.498Z,60.31
2023-02-13T18:07:27.041Z,61.23
2023-02-13T18:10:32.981Z,61.62
2023-02-13T18:13:36.041Z,62.35
2023-02-13T18:16:38.850Z,62.22
2023-02-13T18:19:41.828Z,62.55
2023-02-13T18:22:45.036Z,62.64
2023-02-13T18:25:48.308Z,62.93
2023-02-13T18:28:52.491Z,63.29
2023-02-13T18:31:56.916Z,63.82
2023-02-13T18:34:59.970Z,64.14
2023-02-13T18:38:03.109Z,64.59
2023-02-13T18:41:07.193Z,64.94
2023-02-13T18:44:14.783Z,65.05
2023-02-13T18:47:20.695Z,65.40
2023-02-13T18:50:24.195Z,65.45
2023-02-13T18:53:28.159Z,66.05
2023-02-13T18:56:31.290Z,65.92
2023-02-13T18:59:34.096Z,65.64
2023-02-13T19:02:37.320Z,65.75
2023-02-13T19:05:41.556Z,65.37
2023-02-13T19:08:44.603Z,65.66
2023-02-13T19:11:48.675Z,65.74
2023-02-13T19:14:51.755Z,65.78
2023-02-13T19:17:57.296Z,65.85
2023-02-13T19:21:01.624Z,66.09
2023-02-13T19:24:08.006Z,65.64
2023-02-13T19:27:11.505Z,65.13
2023-02-13T19:30:14.715Z,64.79
2023-02-13T19:33:17.740Z,64.52
2023-02-13T19:36:24.311Z,64.73
2023-02-13T19:39:28.250Z,64.53
2023-02-13T19:42:31.314Z,64.18
2023-02-13T19:45:34.776Z,64.56
2023-02-13T19:48:39.298Z,64.81
2023-02-13T19:51:42.598Z,64.91
2023-02-13T19:54:45.601Z,65.05
2023-02-13T19:57:48.671Z,65.43
2023-02-13T20:00:51.789Z,65.35
2023-02-13T20:03:56.182Z,65.24
2023-02-13T20:06:59.229Z,65.41
2023-02-13T20:10:02.092Z,65.28
2023-02-13T20:13:05.359Z,65.42
2023-02-13T20:16:10.855Z,65.36
2023-02-13T20:19:14.856Z,65.78
2023-02-13T20:22:19.340Z,65.09
2023-02-13T20:25:23.157Z,65.18
2023-02-13T20:28:26.312Z,65.26
2023-02-13T20:31:30.538Z,64.94
2023-02-13T20:34:44.187Z,64.40
2023-02-13T20:37:59.010Z,64.02
2023-02-13T20:41:15.052Z,64.38
2023-02-13T20:44:22.754Z,64.23
2023-02-13T20:47:25.823Z,64.28
2023-02-13T20:50:28.911Z,64.00
2023-02-13T20:53:32.040Z,64.09
2023-02-13T20:56:35.051Z,64.05
2023-02-13T20:59:37.976Z,63.82
2023-02-13T21:02:41.438Z,63.94
2023-02-13T21:05:44.540Z,63.89
2023-02-13T21:08:47.687Z,64.00
2023-02-13T21:11:50.825Z,64.49
2023-02-13T21:14:53.867Z,64.92
2023-02-13T21:17:58.100Z,65.25
2023-02-13T21:21:01.332Z,65.45
2023-02-13T21:24:11.443Z,65.52
2023-02-13T21:27:14.335Z,65.33
2023-02-13T21:30:17.444Z,65.33
2023-02-13T21:33:20.518Z,65.40
2023-02-13T21:36:23.594Z,65.30
2023-02-13T21:39:26.773Z,65.38
2023-02-13T21:42:29.549Z,65.04
2023-02-13T21:45:32.646Z,65.49
2023-02-13T21:48:35.499Z,65.65
2023-02-13T21:51:38.217Z,65.85
2023-02-13T21:54:41.171Z,65.62
2023-02-13T21:57:44.167Z,65.63
2023-02-13T22:00:46.873Z,65.78
2023-02-13T22:03:49.995Z,65.67
2023-02-13T22:06:52.879Z,66.18
2023-02-13T22:09:55.780Z,65.87
2023-02-13T22:12:58.597Z,65.67
2023-02-13T22:16:07.574Z,65.61
2023-02-13T22:19:14.119Z,64.94
2023-02-13T22:22:17.093Z,64.72
2023-02-13T22:25:19.822Z,64.74
2023-02-13T22:28:22.561Z,64.47
2023-02-13T22:31:26.108Z,65.05
2023-02-13T22:34:28.880Z,65.17
2023-02-13T22:37:31.610Z,65.16
2023-02-13T22:40:35.960Z,65.12
2023-02-13T22:43:39.641Z,64.60
2023-02-13T22:46:42.533Z,65.12
2023-02-13T22:49:45.508Z,64.92
2023-02-13T22:52:48.298Z,64.84
2023-02-13T22:55:51.120Z,64.89
2023-02-13T22:58:54.262Z,64.58
2023-02-13T23:01:57.052Z,64.17
2023-02-13T23:04:59.826Z,64.14
2023-02-13T23:08:02.625Z,64.20
2023-02-13T23:11:29.312Z,64.71
2023-02-13T23:14:32.059Z,64.45
2023-02-13T23:17:53.644Z,64.86
2023-02-13T23:20:56.579Z,65.13
2023-02-13T23:23:59.485Z,65.29
2023-02-13T23:27:02.237Z,65.25
2023-02-13T23:30:07.141Z,64.96
2023-02-13T23:33:10.017Z,64.63
2023-02-13T23:36:12.731Z,64.54
2023-02-13T23:39:15.519Z,64.43
2023-02-13T23:42:18.328Z,64.56
2023-02-13T23:45:21.190Z,64.66
2023-02-13T23:48:23.961Z,64.22
2023-02-13T23:51:26.753Z,64.08
2023-02-13T23:54:29.735Z,64.30
2023-02-13T23:57:32.487Z,64.19
